Time,TemperatureF,DewpointF,PressureIn,WindDirection,WindDirectionDegrees,WindSpeedMPH,WindSpeedGustMPH,Humidity,HourlyPrecipIn,Conditions,Clouds,dailyrainin,SoftwareType,DateUTC
2013-01-13 00:02:00,-9.0,-12.0,-100.00,ESE,116,3.0,5.0,88,0.00,,,-99.99,,2013-01-13 07:02:00,
2013-01-13 00:12:00,-9.0,-12.0,-100.00,ESE,116,3.0,5.0,88,0.00,,,-99.99,,2013-01-13 07:12:00,
2013-01-13 00:22:00,-9.0,-12.0,-100.00,SE,130,5.0,6.0,87,0.00,,,-99.99,,2013-01-13 07:22:00,
2013-01-13 00:32:00,-10.0,-13.0,-100.00,SE,129,5.0,7.0,86,0.00,,,-99.99,,2013-01-13 07:32:00,
2013-01-13 00:42:00,-10.0,-13.0,-100.00,SE,129,5.0,7.0,86,0.00,,,-99.99,,2013-01-13 07:42:00,
2013-01-13 00:52:00,-10.0,-13.0,-100.00,SE,124,5.0,7.0,87,0.00,,,-99.99,,2013-01-13 07:52:00,
2013-01-13 01:02:00,-10.0,-13.0,-100.00,SE,127,4.0,5.0,87,0.00,,,-99.99,,2013-01-13 08:02:00,
2013-01-13 01:12:00,-10.0,-13.0,-100.00,SE,127,4.0,5.0,87,0.00,,,-99.99,,2013-01-13 08:12:00,
2013-01-13 01:22:00,-10.0,-13.0,-100.00,SE,131,5.0,6.0,86,0.00,,,-99.99,,2013-01-13 08:22:00,
2013-01-13 01:32:00,-10.0,-13.0,-100.00,SE,135,5.0,7.0,85,0.00,,,-99.99,,2013-01-13 08:32:00,
2013-01-13 01:42:00,-10.0,-13.0,-100.00,SE,135,5.0,7.0,85,0.00,,,-99.99,,2013-01-13 08:42:00,
2013-01-13 01:53:00,-10.0,-13.0,-100.00,SE,131,5.0,8.0,87,0.00,,,-99.99,,2013-01-13 08:53:00,
2013-01-13 02:02:00,-10.0,-13.0,-100.00,SE,124,6.0,9.0,88,0.00,,,-99.99,,2013-01-13 09:02:00,
2013-01-13 02:12:00,-10.0,-13.0,-100.00,SE,138,5.0,7.0,88,0.00,,,-99.99,,2013-01-13 09:12:00,
2013-01-13 02:22:00,-10.0,-13.0,-100.00,SE,138,5.0,7.0,88,0.00,,,-99.99,,2013-01-13 09:22:00,
2013-01-13 02:32:00,-10.0,-13.0,-100.00,SE,128,3.0,5.0,87,0.00,,,-99.99,,2013-01-13 09:32:00,
2013-01-13 02:42:00,-10.0,-13.0,-100.00,SE,128,3.0,5.0,87,0.00,,,-99.99,,2013-01-13 09:42:00,
2013-01-13 02:52:00,-10.0,-13.0,-100.00,SE,131,5.0,7.0,88,0.00,,,-99.99,,2013-01-13 09:52:00,
2013-01-13 03:02:00,-10.0,-12.0,-100.00,ESE,123,5.0,8.0,89,0.00,,,-99.99,,2013-01-13 10:02:00,
2013-01-13 03:12:00,-10.0,-12.0,-100.00,ESE,123,5.0,8.0,89,0.00,,,-99.99,,2013-01-13 10:12:00,
2013-01-13 03:22:00,-11.0,-14.0,-100.00,SE,125,6.0,9.0,87,0.00,,,-99.99,,2013-01-13 10:22:00,
2013-01-13 03:32:00,-11.0,-14.0,-100.00,SE,126,5.0,6.0,88,0.00,,,-99.99,,2013-01-13 10:32:00,
2013-01-13 03:42:00,-11.0,-14.0,-100.00,SE,126,5.0,6.0,88,0.00,,,-99.99,,2013-01-13 10:42:00,
2013-01-13 03:52:00,-12.0,-15.0,-100.00,SE,126,5.0,7.0,87,0.00,,,-99.99,,2013-01-13 10:52:00,
2013-01-13 04:02:00,-12.0,-14.0,-100.00,South,174,4.0,5.0,89,0.00,,,-99.99,,2013-01-13 11:02:00,
2013-01-13 04:12:00,-11.0,-14.0,-100.00,ESE,120,6.0,9.0,87,0.00,,,-99.99,,2013-01-13 11:12:00,
2013-01-13 04:22:00,-11.0,-14.0,-100.00,ESE,120,6.0,9.0,87,0.00,,,-99.99,,2013-01-13 11:22:00,
2013-01-13 04:32:00,-12.0,-15.0,-100.00,SE,130,5.0,6.0,87,0.00,,,-99.99,,2013-01-13 11:32:00,
2013-01-13 04:42:00,-12.0,-15.0,-100.00,SE,130,5.0,6.0,87,0.00,,,-99.99,,2013-01-13 11:42:00,
2013-01-13 04:52:00,-11.0,-13.0,-100.00,SE,135,5.0,6.0,89,0.00,,,-99.99,,2013-01-13 11:52:00,
2013-01-13 05:03:00,-11.0,-13.0,-100.00,SE,128,4.0,6.0,89,0.00,,,-99.99,,2013-01-13 12:03:00,
2013-01-13 05:12:00,-11.0,-13.0,-100.00,SE,128,4.0,6.0,89,0.00,,,-99.99,,2013-01-13 12:12:00,
2013-01-13 05:22:00,-11.0,-14.0,-100.00,SE,133,5.0,8.0,88,0.00,,,-99.99,,2013-01-13 12:22:00,
2013-01-13 05:32:00,-11.0,-14.0,-100.00,ESE,123,6.0,8.0,88,0.00,,,-99.99,,2013-01-13 12:32:00,
2013-01-13 05:42:00,-11.0,-14.0,-100.00,ESE,123,6.0,8.0,88,0.00,,,-99.99,,2013-01-13 12:42:00,
2013-01-13 05:53:00,-12.0,-14.0,-100.00,SE,124,6.0,8.0,89,0.00,,,-99.99,,2013-01-13 12:53:00,
2013-01-13 06:02:00,-12.0,-15.0,-100.00,SE,126,5.0,7.0,88,0.00,,,-99.99,,2013-01-13 13:02:00,
2013-01-13 06:12:00,-12.0,-15.0,-100.00,SE,126,5.0,7.0,88,0.00,,,-99.99,,2013-01-13 13:12:00,
2013-01-13 06:22:00,-12.0,-14.0,-100.00,SE,126,5.0,7.0,90,0.00,,,-99.99,,2013-01-13 13:22:00,
2013-01-13 06:32:00,-12.0,-14.0,-100.00,SE,129,5.0,8.0,89,0.00,,,-99.99,,2013-01-13 13:32:00,
2013-01-13 06:42:00,-12.0,-14.0,-100.00,SE,129,5.0,8.0,89,0.00,,,-99.99,,2013-01-13 13:42:00,
2013-01-13 06:53:00,-12.0,-15.0,-100.00,SE,135,5.0,7.0,88,0.00,,,-99.99,,2013-01-13 13:53:00,
2013-01-13 07:03:00,-12.0,-15.0,-100.00,SE,131,5.0,6.0,87,0.00,,,-99.99,,2013-01-13 14:03:00,
2013-01-13 07:12:00,-12.0,-15.0,-100.00,SE,131,5.0,6.0,87,0.00,,,-99.99,,2013-01-13 14:12:00,
2013-01-13 07:22:00,-12.0,-14.0,-100.00,SE,126,6.0,8.0,89,0.00,,,-99.99,,2013-01-13 14:22:00,
2013-01-13 07:33:00,-12.0,-14.0,-100.00,ESE,123,6.0,8.0,89,0.00,,,-99.99,,2013-01-13 14:33:00,
2013-01-13 07:43:00,-12.0,-14.0,-100.00,ESE,123,6.0,8.0,89,0.00,,,-99.99,,2013-01-13 14:43:00,
2013-01-13 07:53:00,-12.0,-15.0,-100.00,SE,126,6.0,9.0,88,0.00,,,-99.99,,2013-01-13 14:53:00,
2013-01-13 08:03:00,-12.0,-14.0,-100.00,SE,137,4.0,7.0,89,0.00,,,-99.99,,2013-01-13 15:03:00,
2013-01-13 08:12:00,-12.0,-14.0,-100.00,SE,137,4.0,7.0,89,0.00,,,-99.99,,2013-01-13 15:12:00,
2013-01-13 08:22:00,-12.0,-15.0,-100.00,SE,128,6.0,8.0,87,0.00,,,-99.99,,2013-01-13 15:22:00,
2013-01-13 08:33:00,-10.0,-13.0,-100.00,ESE,117,6.0,7.0,87,0.00,,,-99.99,,2013-01-13 15:33:00,
2013-01-13 08:43:00,-10.0,-13.0,-100.00,ESE,117,6.0,7.0,87,0.00,,,-99.99,,2013-01-13 15:43:00,
2013-01-13 08:52:00,-10.0,-13.0,-100.00,ESE,121,5.0,7.0,85,0.00,,,-99.99,,2013-01-13 15:52:00,
2013-01-13 09:03:00,-8.0,-11.0,-100.00,SE,128,7.0,8.0,85,0.00,,,-99.99,,2013-01-13 16:03:00,
2013-01-13 09:12:00,-8.0,-11.0,-100.00,SE,128,7.0,8.0,85,0.00,,,-99.99,,2013-01-13 16:12:00,
2013-01-13 09:22:00,-5.0,-8.0,-100.00,ESE,123,6.0,7.0,85,0.00,,,-99.99,,2013-01-13 16:22:00,
2013-01-13 09:33:00,-1.0,-8.0,-100.00,SE,127,5.0,7.0,72,0.00,,,-99.99,,2013-01-13 16:33:00,
2013-01-13 09:42:00,-1.0,-8.0,-100.00,SE,127,5.0,7.0,72,0.00,,,-99.99,,2013-01-13 16:42:00,
2013-01-13 09:53:00,2.0,-5.0,-100.00,SE,135,3.0,5.0,72,0.00,,,-99.99,,2013-01-13 16:53:00,
2013-01-13 10:03:00,5.0,-4.0,-100.00,SE,136,3.0,5.0,65,0.00,,,-99.99,,2013-01-13 17:03:00,
2013-01-13 10:12:00,5.0,-4.0,-100.00,SE,136,3.0,5.0,65,0.00,,,-99.99,,2013-01-13 17:12:00,
2013-01-13 10:22:00,7.0,-2.0,-100.00,SE,125,3.0,5.0,66,0.00,,,-99.99,,2013-01-13 17:22:00,
2013-01-13 10:33:00,10.0,3.0,-100.00,SE,127,3.0,4.0,72,0.00,,,-99.99,,2013-01-13 17:33:00,
2013-01-13 10:42:00,10.0,3.0,-100.00,SE,127,3.0,4.0,72,0.00,,,-99.99,,2013-01-13 17:42:00,
2013-01-13 10:53:00,11.0,1.0,-100.00,SE,143,2.0,3.0,63,0.00,,,-99.99,,2013-01-13 17:53:00,
2013-01-13 11:03:00,15.0,3.0,-100.00,South,170,3.0,4.0,58,0.00,,,-99.99,,2013-01-13 18:03:00,
2013-01-13 11:12:00,15.0,3.0,-100.00,South,170,3.0,4.0,58,0.00,,,-99.99,,2013-01-13 18:12:00,
2013-01-13 11:22:00,15.0,1.0,-100.00,SSW,209,4.0,5.0,53,0.00,,,-99.99,,2013-01-13 18:22:00,
2013-01-13 11:33:00,13.0,1.0,-100.00,SSE,166,1.0,3.0,59,0.00,,,-99.99,,2013-01-13 18:33:00,
2013-01-13 11:42:00,13.0,1.0,-100.00,SSE,166,1.0,3.0,59,0.00,,,-99.99,,2013-01-13 18:42:00,
2013-01-13 11:53:00,9.0,-3.0,-100.00,SE,130,4.0,7.0,56,0.00,,,-99.99,,2013-01-13 18:53:00,
2013-01-13 12:02:00,10.0,0.0,-100.00,ESE,106,3.0,4.0,62,0.00,,,-99.99,,2013-01-13 19:02:00,
2013-01-13 12:12:00,10.0,0.0,-100.00,ESE,106,3.0,4.0,62,0.00,,,-99.99,,2013-01-13 19:12:00,
2013-01-13 12:22:00,15.0,5.0,-100.00,East,92,2.0,5.0,65,0.00,,,-99.99,,2013-01-13 19:22:00,
2013-01-13 12:33:00,14.0,4.0,-100.00,ESE,110,3.0,5.0,64,0.00,,,-99.99,,2013-01-13 19:33:00,
2013-01-13 12:42:00,14.0,4.0,-100.00,ESE,110,3.0,5.0,64,0.00,,,-99.99,,2013-01-13 19:42:00,
2013-01-13 12:53:00,11.0,-4.0,-100.00,NE,52,3.0,5.0,51,0.00,,,-99.99,,2013-01-13 19:53:00,
2013-01-13 13:02:00,13.0,0.0,-100.00,SE,132,2.0,6.0,55,0.00,,,-99.99,,2013-01-13 20:02:00,
2013-01-13 13:12:00,13.0,0.0,-100.00,SE,132,2.0,6.0,55,0.00,,,-99.99,,2013-01-13 20:12:00,
2013-01-13 13:22:00,12.0,-2.0,-100.00,West,275,0.0,3.0,53,0.00,,,-99.99,,2013-01-13 20:22:00,
2013-01-13 13:33:00,11.0,-2.0,-100.00,NW,322,5.0,9.0,54,0.00,,,-99.99,,2013-01-13 20:33:00,
2013-01-13 13:43:00,11.0,-2.0,-100.00,NW,322,5.0,9.0,54,0.00,,,-99.99,,2013-01-13 20:43:00,
2013-01-13 13:53:00,9.0,-2.0,-100.00,NW,318,5.0,7.0,61,0.00,,,-99.99,,2013-01-13 20:53:00,
2013-01-13 14:03:00,9.0,0.0,-100.00,NW,312,3.0,5.0,67,0.00,,,-99.99,,2013-01-13 21:03:00,
2013-01-13 14:12:00,9.0,0.0,-100.00,NW,312,3.0,5.0,67,0.00,,,-99.99,,2013-01-13 21:12:00,
2013-01-13 14:23:00,9.0,1.0,-100.00,East,82,0.0,2.0,70,0.00,,,-99.99,,2013-01-13 21:23:00,
2013-01-13 14:33:00,8.0,-1.0,-100.00,NW,315,5.0,10.0,65,0.00,,,-99.99,,2013-01-13 21:33:00,
2013-01-13 14:42:00,8.0,-1.0,-100.00,NW,315,5.0,10.0,65,0.00,,,-99.99,,2013-01-13 21:42:00,
2013-01-13 14:53:00,4.0,-3.0,-100.00,NNW,333,6.0,8.0,73,0.00,,,-99.99,,2013-01-13 21:53:00,
2013-01-13 15:02:00,3.0,-3.0,-100.00,NNW,333,4.0,7.0,77,0.00,,,-99.99,,2013-01-13 22:02:00,
2013-01-13 15:12:00,3.0,-3.0,-100.00,NNW,333,4.0,7.0,77,0.00,,,-99.99,,2013-01-13 22:12:00,
2013-01-13 15:22:00,3.0,-3.0,-100.00,NNW,337,4.0,6.0,77,0.00,,,-99.99,,2013-01-13 22:22:00,
2013-01-13 15:33:00,4.0,-2.0,-100.00,NNW,337,3.0,5.0,77,0.00,,,-99.99,,2013-01-13 22:33:00,
2013-01-13 15:43:00,4.0,-2.0,-100.00,NNW,337,3.0,5.0,77,0.00,,,-99.99,,2013-01-13 22:43:00,
2013-01-13 15:52:00,4.0,-2.0,-100.00,NNW,332,4.0,7.0,76,0.00,,,-99.99,,2013-01-13 22:52:00,
2013-01-13 16:02:00,3.0,-2.0,-100.00,NNW,337,5.0,7.0,80,0.00,,,-99.99,,2013-01-13 23:02:00,
2013-01-13 16:12:00,3.0,-2.0,-100.00,NNW,337,5.0,7.0,80,0.00,,,-99.99,,2013-01-13 23:12:00,
2013-01-13 16:22:00,3.0,-2.0,-100.00,NNW,337,4.0,6.0,78,0.00,,,-99.99,,2013-01-13 23:22:00,
2013-01-13 16:33:00,3.0,-2.0,-100.00,NNW,337,4.0,6.0,78,0.00,,,-99.99,,2013-01-13 23:33:00,
2013-01-13 16:42:00,3.0,-2.0,-100.00,NNW,337,4.0,6.0,78,0.00,,,-99.99,,2013-01-13 23:42:00,
2013-01-13 16:53:00,2.0,-4.0,-100.00,NNW,337,3.0,4.0,77,0.00,,,-99.99,,2013-01-13 23:53:00,
2013-01-13 17:02:00,0.0,-5.0,-100.00,NNW,337,5.0,6.0,78,0.00,,,-99.99,,2013-01-14 00:02:00,
2013-01-13 17:12:00,0.0,-5.0,-100.00,NNW,337,5.0,6.0,78,0.00,,,-99.99,,2013-01-14 00:12:00,
2013-01-13 17:22:00,0.0,-4.0,-100.00,NNW,337,5.0,7.0,83,0.00,,,-99.99,,2013-01-14 00:22:00,
2013-01-13 17:32:00,0.0,-4.0,-100.00,NNW,337,3.0,5.0,82,0.00,,,-99.99,,2013-01-14 00:32:00,
2013-01-13 17:43:00,0.0,-4.0,-100.00,NNW,337,3.0,5.0,82,0.00,,,-99.99,,2013-01-14 00:43:00,
2013-01-13 17:53:00,-1.0,-5.0,-100.00,NNW,337,3.0,5.0,84,0.00,,,-99.99,,2013-01-14 00:53:00,
2013-01-13 18:03:00,-1.0,-5.0,-100.00,NNW,329,2.0,4.0,84,0.00,,,-99.99,,2013-01-14 01:03:00,
2013-01-13 18:12:00,-1.0,-5.0,-100.00,NNW,329,2.0,4.0,84,0.00,,,-99.99,,2013-01-14 01:12:00,
2013-01-13 18:22:00,-2.0,-6.0,-100.00,WNW,292,0.0,2.0,83,0.00,,,-99.99,,2013-01-14 01:22:00,
2013-01-13 18:32:00,-2.0,-6.0,-100.00,NNW,332,1.0,2.0,84,0.00,,,-99.99,,2013-01-14 01:32:00,
2013-01-13 18:42:00,-2.0,-6.0,-100.00,NNW,332,1.0,2.0,84,0.00,,,-99.99,,2013-01-14 01:42:00,
2013-01-13 18:52:00,-1.0,-5.0,-100.00,North,-999,0.0,0.0,83,0.00,,,-99.99,,2013-01-14 01:52:00,
2013-01-13 19:02:00,-1.0,-4.0,-100.00,NNW,337,1.0,2.0,86,0.00,,,-99.99,,2013-01-14 02:02:00,
2013-01-13 19:12:00,-1.0,-4.0,-100.00,WNW,292,0.0,1.0,86,0.00,,,-99.99,,2013-01-14 02:12:00,
2013-01-13 19:22:00,-1.0,-4.0,-100.00,WNW,292,0.0,1.0,86,0.00,,,-99.99,,2013-01-14 02:22:00,
2013-01-13 19:32:00,-2.0,-5.0,-100.00,NNW,337,2.0,3.0,87,0.00,,,-99.99,,2013-01-14 02:32:00,
2013-01-13 19:42:00,-2.0,-5.0,-100.00,NNW,337,2.0,3.0,87,0.00,,,-99.99,,2013-01-14 02:42:00,
2013-01-13 19:53:00,-3.0,-6.0,-100.00,NNW,337,1.0,2.0,86,0.00,,,-99.99,,2013-01-14 02:53:00,
2013-01-13 20:02:00,-3.0,-6.0,-100.00,NNW,337,0.0,1.0,86,0.00,,,-99.99,,2013-01-14 03:02:00,
2013-01-13 20:12:00,-3.0,-6.0,-100.00,NNW,337,0.0,1.0,86,0.00,,,-99.99,,2013-01-14 03:12:00,
2013-01-13 20:22:00,-2.0,-5.0,-100.00,NNW,337,0.0,0.0,88,0.00,,,-99.99,,2013-01-14 03:22:00,
2013-01-13 20:32:00,-2.0,-5.0,-100.00,North,-999,0.0,0.0,86,0.00,,,-99.99,,2013-01-14 03:32:00,
2013-01-13 20:42:00,-2.0,-5.0,-100.00,North,-999,0.0,0.0,86,0.00,,,-99.99,,2013-01-14 03:42:00,
2013-01-13 20:53:00,-2.0,-5.0,-100.00,North,-999,0.0,0.0,86,0.00,,,-99.99,,2013-01-14 03:53:00,
2013-01-13 21:02:00,-3.0,-6.0,-100.00,NNW,337,1.0,2.0,87,0.00,,,-99.99,,2013-01-14 04:02:00,
2013-01-13 21:12:00,-3.0,-6.0,-100.00,NNW,337,1.0,2.0,87,0.00,,,-99.99,,2013-01-14 04:12:00,
2013-01-13 21:22:00,-4.0,-7.0,-100.00,NNW,337,0.0,2.0,87,0.00,,,-99.99,,2013-01-14 04:22:00,
2013-01-13 21:32:00,-4.0,-7.0,-100.00,NNW,337,2.0,3.0,86,0.00,,,-99.99,,2013-01-14 04:32:00,
2013-01-13 21:42:00,-4.0,-7.0,-100.00,NNW,337,2.0,3.0,86,0.00,,,-99.99,,2013-01-14 04:42:00,
2013-01-13 21:53:00,-6.0,-8.0,-100.00,NNW,337,3.0,5.0,90,0.00,,,-99.99,,2013-01-14 04:53:00,
2013-01-13 22:03:00,-6.0,-8.0,-100.00,West,277,0.0,0.0,90,0.00,,,-99.99,,2013-01-14 05:03:00,
2013-01-13 22:12:00,-6.0,-8.0,-100.00,West,277,0.0,0.0,90,0.00,,,-99.99,,2013-01-14 05:12:00,
2013-01-13 22:22:00,-9.0,-11.0,-100.00,North,-999,0.0,0.0,89,0.00,,,-99.99,,2013-01-14 05:22:00,
2013-01-13 22:32:00,-10.0,-12.0,-100.00,WNW,292,0.0,0.0,89,0.00,,,-99.99,,2013-01-14 05:32:00,
2013-01-13 22:42:00,-10.0,-12.0,-100.00,WNW,292,0.0,0.0,89,0.00,,,-99.99,,2013-01-14 05:42:00,
2013-01-13 22:53:00,-10.0,-12.0,-100.00,WNW,292,0.0,2.0,89,0.00,,,-99.99,,2013-01-14 05:53:00,
2013-01-13 23:02:00,-10.0,-12.0,-100.00,ESE,123,3.0,4.0,92,0.00,,,-99.99,,2013-01-14 06:02:00,
2013-01-13 23:12:00,-10.0,-12.0,-100.00,ESE,123,3.0,4.0,92,0.00,,,-99.99,,2013-01-14 06:12:00,
2013-01-13 23:22:00,-9.0,-11.0,-100.00,ESE,120,3.0,4.0,92,0.00,,,-99.99,,2013-01-14 06:22:00,
2013-01-13 23:32:00,-10.0,-12.0,-100.00,SE,142,3.0,4.0,91,0.00,,,-99.99,,2013-01-14 06:32:00,
2013-01-13 23:42:00,-10.0,-12.0,-100.00,SE,142,3.0,4.0,91,0.00,,,-99.99,,2013-01-14 06:42:00,
2013-01-13 23:53:00,-10.0,-12.0,-100.00,SE,126,3.0,4.0,90,0.00,,,-99.99,,2013-01-14 06:53:00,